Time;durP1;ratioP1;P1;durP2;ratioP2;P2;SDS_P1;SDS_P2;PMS_P1;PMS_P2;Temp;Humidity;BMP_temperature;BMP_pressure;BME280_temperature;BME280_humidity;BME280_pressure;Samples;Min_cycle;Max_cycle;Signal;HPM_P1;HPM_P2
2023/08/31 00:01:39;;;;;;;0.10;0.10;;;13.10;99.90;;;;;;5037407;28;20029;-68
2023/08/31 00:04:10;;;;;;;1.20;1.10;;;13.10;99.90;;;;;;5030330;28;20059;-68
2023/08/31 00:06:36;;;;;;;0.10;0.10;;;13.10;99.90;;;;;;5036249;28;20324;-68
2023/08/31 00:09:05;;;;;;;0.30;0.30;;;13.10;99.90;;;;;;5027987;28;20017;-68
2023/08/31 00:11:30;;;;;;;0.55;0.40;;;13.10;99.90;;;;;;5035671;28;20029;-68
2023/08/31 00:13:56;;;;;;;1.37;1.27;;;13.10;99.90;;;;;;5033519;28;20301;-68
2023/08/31 00:16:26;;;;;;;0.20;0.20;;;13.20;99.90;;;;;;5036020;28;20029;-66
2023/08/31 00:18:52;;;;;;;0.50;0.50;;;13.30;99.90;;;;;;5032503;28;20025;-67
2023/08/31 00:21:17;;;;;;;0.33;0.23;;;13.20;99.90;;;;;;5035800;28;20029;-67
2023/08/31 00:23:43;;;;;;;0.40;0.40;;;13.20;99.90;;;;;;5035619;28;20025;-66
2023/08/31 00:26:09;;;;;;;2.13;1.33;;;13.20;99.90;;;;;;5033240;28;20091;-66
2023/08/31 00:28:35;;;;;;;0.57;0.57;;;13.20;99.90;;;;;;5021366;28;20029;-66
2023/08/31 00:31:03;;;;;;;0.10;0.10;;;13.20;99.90;;;;;;5035916;28;20029;-66
2023/08/31 00:33:29;;;;;;;0.15;0.15;;;13.20;99.90;;;;;;5033390;28;20070;-66
2023/08/31 00:35:56;;;;;;;0.47;0.40;;;13.20;99.90;;;;;;5035449;28;20726;-66
2023/08/31 00:38:21;;;;;;;0.43;0.43;;;13.10;99.90;;;;;;5046512;28;20041;-66
2023/08/31 00:40:47;;;;;;;0.70;0.40;;;13.10;99.90;;;;;;5043841;28;20036;-66
2023/08/31 00:43:17;;;;;;;0.27;0.27;;;13.00;99.90;;;;;;5044658;28;20041;-66
2023/08/31 00:45:44;;;;;;;1.67;0.77;;;13.00;99.90;;;;;;5030374;28;20068;-67
2023/08/31 00:48:12;;;;;;;0.68;0.57;;;13.00;99.90;;;;;;5033116;28;20052;-66
2023/08/31 00:50:38;;;;;;;0.55;0.50;;;13.00;99.90;;;;;;5038569;28;20017;-66
2023/08/31 00:53:04;;;;;;;10.13;0.43;;;13.00;99.90;;;;;;5037488;28;20024;-66
2023/08/31 00:55:30;;;;;;;1.60;0.97;;;13.00;99.90;;;;;;5048204;28;20033;-66
2023/08/31 00:57:55;;;;;;;0.17;0.17;;;13.20;99.90;;;;;;5034568;28;20282;-68
2023/08/31 01:00:59;;;;;;;23.97;1.17;;;13.20;99.90;;;;;;5043660;28;20274;-69
2023/08/31 01:03:50;;;;;;;0.50;0.50;;;13.20;99.90;;;;;;5048548;28;20041;-70
2023/08/31 01:06:27;;;;;;;2.10;1.60;;;13.10;99.90;;;;;;5041845;28;20104;-69
2023/08/31 01:08:55;;;;;;;0.35;0.35;;;13.10;99.90;;;;;;5031326;28;20038;-71
2023/08/31 01:11:50;;;;;;;0.20;0.20;;;13.10;99.90;;;;;;5044145;28;20026;-82
2023/08/31 01:14:24;;;;;;;0.20;0.20;;;13.00;99.90;;;;;;5037018;28;20041;-70
2023/08/31 01:16:51;;;;;;;2.15;0.25;;;12.90;99.90;;;;;;5032768;28;20439;-69
2023/08/31 01:19:43;;;;;;;0.52;0.32;;;12.90;99.90;;;;;;5039664;28;20048;-69
2023/08/31 01:22:14;;;;;;;0.90;0.75;;;12.80;99.90;;;;;;5041960;28;20028;-70
2023/08/31 01:24:41;;;;;;;0.30;0.30;;;12.70;99.90;;;;;;5027868;28;20049;-70
2023/08/31 01:27:07;;;;;;;0.20;0.20;;;12.70;99.90;;;;;;5032179;28;20026;-70
2023/08/31 01:29:33;;;;;;;16.92;0.85;;;12.80;99.90;;;;;;5038030;28;20075;-70
2023/08/31 01:31:59;;;;;;;0.40;0.23;;;12.80;99.90;;;;;;5033639;28;20057;-70
2023/08/31 01:34:24;;;;;;;0.10;0.10;;;12.80;99.90;;;;;;5039754;28;20025;-69
2023/08/31 01:36:58;;;;;;;1.83;0.30;;;12.80;99.90;;;;;;5034837;28;20087;-70
2023/08/31 01:39:32;;;;;;;0.10;0.10;;;12.80;99.90;;;;;;5026351;28;20020;-69
2023/08/31 01:42:04;;;;;;;0.10;0.10;;;12.80;99.90;;;;;;5037082;28;20105;-69
2023/08/31 01:44:32;;;;;;;10.80;0.70;;;12.70;99.90;;;;;;5031103;28;20451;-69
2023/08/31 01:47:06;;;;;;;0.28;0.28;;;12.70;99.90;;;;;;5032213;28;20025;-69
2023/08/31 01:49:38;;;;;;;0.10;0.10;;;12.70;99.90;;;;;;5041958;28;20014;-78
2023/08/31 01:52:05;;;;;;;2.05;0.52;;;12.70;99.90;;;;;;5042707;28;20033;-69
2023/08/31 01:54:31;;;;;;;0.38;0.20;;;12.80;99.90;;;;;;5037255;28;20079;-69
2023/08/31 01:56:57;;;;;;;0.30;0.30;;;12.80;99.90;;;;;;5046399;28;20392;-69
2023/08/31 01:59:22;;;;;;;0.30;0.30;;;12.80;99.90;;;;;;5030305;28;20112;-69
2023/08/31 02:01:48;;;;;;;0.00;0.00;;;12.80;99.90;;;;;;5032236;28;20026;-68
2023/08/31 02:04:14;;;;;;;0.77;0.40;;;12.80;99.90;;;;;;5035651;28;20032;-68
2023/08/31 02:06:40;;;;;;;0.10;0.10;;;12.80;99.90;;;;;;5046736;28;20029;-69
2023/08/31 02:09:06;;;;;;;0.30;0.30;;;12.70;99.90;;;;;;5028497;28;20435;-69
2023/08/31 02:11:35;;;;;;;0.10;0.10;;;12.70;99.90;;;;;;5032647;28;20116;-69
2023/08/31 02:14:00;;;;;;;0.20;0.20;;;12.80;99.90;;;;;;5034166;28;20439;-81
2023/08/31 02:16:26;;;;;;;0.07;0.07;;;12.80;99.90;;;;;;5050706;28;20036;-68
2023/08/31 02:18:52;;;;;;;0.00;0.00;;;12.80;99.90;;;;;;5042033;28;20032;-69
2023/08/31 02:21:18;;;;;;;0.10;0.10;;;12.80;99.90;;;;;;5048265;28;20040;-69
2023/08/31 02:23:43;;;;;;;0.20;0.20;;;12.70;99.90;;;;;;5054204;28;20108;-70
2023/08/31 02:26:11;;;;;;;0.10;0.10;;;12.70;99.90;;;;;;5054145;28;20175;-69
2023/08/31 02:28:37;;;;;;;0.10;0.10;;;12.70;99.90;;;;;;5048494;28;20110;-69
2023/08/31 02:31:03;;;;;;;0.30;0.30;;;12.60;99.90;;;;;;5033914;28;20637;-68
2023/08/31 02:33:29;;;;;;;0.63;0.50;;;12.60;99.90;;;;;;5034180;28;20045;-69
2023/08/31 02:35:55;;;;;;;0.23;0.10;;;12.60;99.90;;;;;;5030114;28;20025;-68
2023/08/31 02:38:21;;;;;;;0.10;0.10;;;12.60;99.90;;;;;;5034534;28;20033;-69
2023/08/31 02:40:47;;;;;;;0.20;0.20;;;12.60;99.90;;;;;;5028506;28;20044;-79
2023/08/31 02:43:13;;;;;;;0.20;0.20;;;12.50;99.90;;;;;;5034899;28;20029;-68
2023/08/31 02:45:39;;;;;;;0.00;0.00;;;12.60;99.90;;;;;;5043055;28;20071;-69
2023/08/31 02:48:07;;;;;;;0.67;0.30;;;12.60;99.90;;;;;;5035387;28;20037;-68
2023/08/31 02:50:34;;;;;;;0.20;0.20;;;12.50;99.90;;;;;;5043611;28;20096;-69
2023/08/31 02:53:00;;;;;;;0.10;0.10;;;12.50;99.90;;;;;;5037371;28;20469;-69
2023/08/31 02:55:26;;;;;;;0.00;0.00;;;12.60;99.90;;;;;;5036544;28;20118;-69
2023/08/31 02:57:51;;;;;;;0.40;0.40;;;12.60;99.90;;;;;;5030571;28;20038;-68
2023/08/31 03:00:21;;;;;;;0.77;0.70;;;12.60;99.90;;;;;;5026921;28;20034;-68
2023/08/31 03:02:53;;;;;;;0.00;0.00;;;12.60;99.90;;;;;;5038975;28;20439;-68
2023/08/31 03:05:21;;;;;;;0.25;0.25;;;12.60;99.90;;;;;;5040332;28;20490;-80
2023/08/31 03:07:46;;;;;;;0.00;0.00;;;12.60;99.90;;;;;;5035506;28;20022;-68
2023/08/31 03:10:12;;;;;;;0.10;0.10;;;12.60;99.90;;;;;;5037128;28;20033;-68
2023/08/31 03:12:38;;;;;;;2.27;0.53;;;12.60;99.90;;;;;;5035277;28;20025;-68
2023/08/31 03:15:05;;;;;;;0.20;0.20;;;12.60;99.90;;;;;;5030218;28;20056;-68
2023/08/31 03:17:31;;;;;;;1.40;0.32;;;12.60;99.90;;;;;;5036531;28;20037;-68
2023/08/31 03:19:57;;;;;;;0.37;0.30;;;12.60;99.90;;;;;;5042801;28;20407;-68
2023/08/31 03:22:23;;;;;;;0.30;0.30;;;12.60;99.90;;;;;;5049671;28;20108;-77
2023/08/31 03:24:48;;;;;;;0.30;0.30;;;12.50;99.90;;;;;;5032538;28;20375;-68
2023/08/31 03:27:15;;;;;;;0.30;0.30;;;12.50;99.90;;;;;;5047920;28;20066;-69
2023/08/31 03:29:41;;;;;;;0.00;0.00;;;12.50;99.90;;;;;;5039995;28;20060;-68
2023/08/31 03:32:07;;;;;;;0.10;0.10;;;12.50;99.90;;;;;;5036317;28;20077;-69
2023/08/31 03:34:33;;;;;;;0.33;0.20;;;12.50;99.90;;;;;;5037552;28;20037;-68
2023/08/31 03:36:59;;;;;;;0.17;0.17;;;12.50;99.90;;;;;;5038646;28;20074;-68
2023/08/31 03:39:25;;;;;;;0.10;0.10;;;12.50;99.90;;;;;;5044220;28;20492;-69
2023/08/31 03:41:51;;;;;;;0.10;0.10;;;12.50;99.90;;;;;;5045789;28;20320;-68
2023/08/31 03:44:16;;;;;;;0.00;0.00;;;12.50;99.90;;;;;;5027213;28;20029;-68
2023/08/31 03:46:43;;;;;;;0.20;0.20;;;12.40;99.90;;;;;;5032484;28;20062;-68
2023/08/31 03:49:09;;;;;;;0.00;0.00;;;12.40;99.90;;;;;;5046258;28;20030;-69
2023/08/31 03:51:34;;;;;;;0.17;0.17;;;12.40;99.90;;;;;;5033496;28;20095;-68
2023/08/31 03:54:01;;;;;;;4.37;1.60;;;12.50;99.90;;;;;;5038834;28;20035;-68
2023/08/31 03:56:26;;;;;;;0.20;0.20;;;12.50;99.90;;;;;;5034946;28;20487;-68
2023/08/31 03:58:53;;;;;;;1.60;0.67;;;12.50;99.90;;;;;;5035125;28;20033;-68
2023/08/31 04:01:18;;;;;;;0.13;0.10;;;12.60;99.90;;;;;;5034442;28;20109;-68
2023/08/31 04:03:44;;;;;;;7.33;0.47;;;12.60;99.90;;;;;;5031181;28;20384;-68
2023/08/31 04:06:10;;;;;;;0.10;0.10;;;12.60;99.90;;;;;;5040839;28;20328;-68
2023/08/31 04:08:36;;;;;;;0.07;0.07;;;12.60;99.90;;;;;;5035664;28;20412;-69
2023/08/31 04:11:02;;;;;;;0.00;0.00;;;12.60;99.90;;;;;;5034974;28;20278;-68
2023/08/31 04:13:28;;;;;;;;;;;12.60;99.90;;;;;;5045049;28;20033;-69
2023/08/31 04:15:54;;;;;;;0.63;0.50;;;12.70;99.90;;;;;;5035388;28;19962;-68
2023/08/31 04:18:20;;;;;;;0.15;0.15;;;12.70;99.90;;;;;;5044724;28;20112;-68
2023/08/31 04:20:51;;;;;;;0.37;0.30;;;12.70;99.90;;;;;;5032198;28;20117;-68
2023/08/31 04:23:17;;;;;;;0.00;0.00;;;12.70;99.90;;;;;;5023106;28;20025;-83
2023/08/31 04:25:43;;;;;;;;;;;12.80;99.90;;;;;;5027977;28;20087;-68
2023/08/31 04:28:09;;;;;;;0.20;0.20;;;12.80;99.90;;;;;;5051039;28;19908;-68
2023/08/31 04:30:34;;;;;;;0.00;0.00;;;12.70;99.90;;;;;;5040189;28;20017;-68
2023/08/31 04:33:00;;;;;;;0.13;0.10;;;12.70;99.90;;;;;;5037280;28;20108;-68
2023/08/31 04:35:26;;;;;;;0.10;0.10;;;12.80;99.90;;;;;;5036153;28;20037;-67
2023/08/31 04:37:52;;;;;;;0.10;0.10;;;12.80;99.90;;;;;;5029147;28;20026;-68
2023/08/31 04:40:18;;;;;;;0.20;0.20;;;12.70;99.90;;;;;;5034834;28;20100;-78
2023/08/31 04:42:44;;;;;;;0.00;0.00;;;12.70;99.90;;;;;;5034337;28;20025;-68
2023/08/31 04:45:12;;;;;;;5.35;1.55;;;12.70;99.90;;;;;;5035070;28;20033;-68
2023/08/31 04:47:37;;;;;;;0.03;0.03;;;12.70;99.90;;;;;;5033414;28;20074;-68
2023/08/31 04:50:06;;;;;;;0.00;0.00;;;12.60;99.90;;;;;;5032454;28;20390;-68
2023/08/31 04:52:32;;;;;;;0.00;0.00;;;12.60;99.90;;;;;;5047073;28;20025;-68
2023/08/31 04:55:00;;;;;;;0.00;0.00;;;12.50;99.90;;;;;;5040468;28;20419;-68
2023/08/31 04:57:26;;;;;;;0.05;0.05;;;12.60;99.90;;;;;;5033996;28;20033;-69
2023/08/31 04:59:51;;;;;;;0.00;0.00;;;12.60;99.90;;;;;;5033226;28;20032;-68
2023/08/31 05:02:17;;;;;;;0.40;0.40;;;12.60;99.90;;;;;;5034444;28;20033;-68
2023/08/31 05:04:43;;;;;;;3.10;1.55;;;12.60;99.90;;;;;;5036020;28;20033;-68
2023/08/31 05:07:09;;;;;;;1.97;1.40;;;12.60;99.90;;;;;;5034430;28;20087;-69
2023/08/31 05:09:35;;;;;;;0.00;0.00;;;12.60;99.90;;;;;;5045817;28;20581;-69
2023/08/31 05:12:04;;;;;;;0.00;0.00;;;12.70;99.90;;;;;;5047741;28;20033;-69
2023/08/31 05:14:29;;;;;;;0.35;0.32;;;12.70;99.90;;;;;;5042487;28;20025;-80
2023/08/31 05:16:56;;;;;;;0.10;0.10;;;12.60;99.90;;;;;;5034942;28;20087;-69
2023/08/31 05:19:22;;;;;;;0.13;0.13;;;12.60;99.90;;;;;;5034120;28;20052;-68
2023/08/31 05:21:47;;;;;;;0.00;0.00;;;12.70;99.90;;;;;;5034362;28;20301;-69
2023/08/31 05:24:13;;;;;;;0.43;0.27;;;12.70;99.90;;;;;;5034984;28;20038;-69
2023/08/31 05:26:39;;;;;;;0.17;0.17;;;12.70;99.90;;;;;;5046025;28;20060;-69
2023/08/31 05:29:05;;;;;;;3.75;0.20;;;12.70;99.90;;;;;;5035815;28;20036;-68
2023/08/31 05:31:31;;;;;;;4.40;1.70;;;12.80;99.90;;;;;;5046647;28;20030;-79
2023/08/31 05:33:57;;;;;;;0.00;0.00;;;12.80;99.90;;;;;;5042870;28;20030;-69
2023/08/31 05:36:23;;;;;;;0.00;0.00;;;12.80;99.90;;;;;;5033617;28;20094;-69
2023/08/31 05:38:50;;;;;;;0.37;0.30;;;12.70;99.90;;;;;;5033994;28;20028;-71
2023/08/31 05:41:16;;;;;;;0.00;0.00;;;12.70;99.90;;;;;;5031375;28;20037;-70
2023/08/31 05:43:42;;;;;;;8.23;2.90;;;12.70;99.90;;;;;;5038139;28;20431;-68
2023/08/31 05:46:08;;;;;;;0.00;0.00;;;12.70;99.90;;;;;;5051045;28;20306;-69
2023/08/31 05:48:37;;;;;;;0.43;0.43;;;12.70;99.90;;;;;;5038490;28;20024;-70
2023/08/31 05:51:03;;;;;;;0.05;0.05;;;12.70;99.90;;;;;;5035319;28;20037;-69
2023/08/31 05:53:33;;;;;;;0.10;0.10;;;12.70;99.90;;;;;;5040469;28;20052;-69
2023/08/31 05:56:05;;;;;;;0.20;0.20;;;12.80;99.90;;;;;;5034319;28;20371;-69
2023/08/31 05:58:32;;;;;;;0.00;0.00;;;12.80;99.90;;;;;;5032681;28;20316;-70
2023/08/31 06:00:58;;;;;;;0.00;0.00;;;12.80;99.90;;;;;;5038438;28;20112;-69
2023/08/31 06:03:24;;;;;;;0.03;0.03;;;12.80;99.90;;;;;;5039365;28;20026;-69
2023/08/31 06:05:50;;;;;;;0.00;0.00;;;12.90;99.90;;;;;;5042421;28;20424;-69
2023/08/31 06:08:15;;;;;;;0.10;0.10;;;12.90;99.90;;;;;;5032472;28;20026;-69
2023/08/31 06:10:41;;;;;;;0.37;0.23;;;12.90;99.90;;;;;;5033928;28;20028;-69
2023/08/31 06:13:07;;;;;;;3.00;0.40;;;13.00;99.90;;;;;;5038821;28;20103;-81
2023/08/31 06:15:33;;;;;;;0.00;0.00;;;13.00;99.90;;;;;;5035179;28;20029;-69
2023/08/31 06:17:58;;;;;;;0.33;0.33;;;13.10;99.90;;;;;;5034379;28;20018;-69
2023/08/31 06:20:24;;;;;;;0.10;0.10;;;13.00;99.90;;;;;;5034164;28;20037;-69
2023/08/31 06:22:50;;;;;;;0.00;0.00;;;13.00;99.90;;;;;;5035640;28;20066;-69
2023/08/31 06:25:18;;;;;;;3.20;1.07;;;13.00;99.90;;;;;;5040633;28;20045;-69
2023/08/31 06:27:44;;;;;;;0.00;0.00;;;13.00;99.90;;;;;;5050433;28;20033;-69
2023/08/31 06:30:15;;;;;;;0.10;0.10;;;13.10;99.90;;;;;;5049407;28;20706;-83
2023/08/31 06:32:43;;;;;;;0.03;0.03;;;13.20;99.90;;;;;;5037238;28;20024;-69
2023/08/31 06:35:09;;;;;;;0.20;0.20;;;13.30;99.90;;;;;;5036913;28;20026;-69
2023/08/31 06:37:34;;;;;;;0.00;0.00;;;13.30;99.90;;;;;;5042550;28;20018;-69
2023/08/31 06:40:00;;;;;;;0.10;0.10;;;13.40;99.90;;;;;;5046664;28;20032;-69
2023/08/31 06:42:25;;;;;;;0.00;0.00;;;13.30;99.90;;;;;;5036606;28;20029;-69
2023/08/31 06:44:51;;;;;;;0.00;0.00;;;13.30;99.90;;;;;;5037273;28;20049;-69
2023/08/31 06:47:17;;;;;;;0.00;0.00;;;13.40;99.90;;;;;;5036214;28;20029;-81
2023/08/31 06:49:43;;;;;;;31.37;4.13;;;13.40;99.90;;;;;;5046201;28;20163;-69
2023/08/31 06:52:09;;;;;;;0.30;0.30;;;13.50;99.90;;;;;;5036224;28;20060;-69
2023/08/31 06:54:34;;;;;;;0.00;0.00;;;13.60;99.90;;;;;;5043892;28;20435;-69
2023/08/31 06:57:00;;;;;;;0.10;0.10;;;13.60;99.90;;;;;;5037957;28;20033;-70
2023/08/31 06:59:26;;;;;;;0.00;0.00;;;13.60;99.90;;;;;;5043787;28;20120;-69
2023/08/31 07:01:51;;;;;;;0.00;0.00;;;13.60;99.90;;;;;;5044037;28;20025;-69
2023/08/31 07:04:17;;;;;;;0.00;0.00;;;13.60;99.90;;;;;;5039445;28;20331;-69
2023/08/31 07:06:43;;;;;;;0.23;0.23;;;13.70;99.90;;;;;;5041323;28;20048;-70
2023/08/31 07:09:08;;;;;;;0.00;0.00;;;13.80;99.90;;;;;;5042603;28;20033;-69
2023/08/31 07:11:34;;;;;;;0.00;0.00;;;14.00;99.90;;;;;;5028546;28;20025;-69
2023/08/31 07:14:00;;;;;;;0.00;0.00;;;14.20;99.90;;;;;;5040681;28;20080;-69
2023/08/31 07:16:26;;;;;;;2.10;1.17;;;14.40;99.90;;;;;;5048465;28;20029;-70
2023/08/31 07:18:52;;;;;;;0.33;0.30;;;14.50;99.90;;;;;;5048640;28;20557;-69
2023/08/31 07:21:18;;;;;;;1.73;0.90;;;14.50;99.90;;;;;;5043079;28;20029;-69
2023/08/31 07:23:43;;;;;;;0.10;0.10;;;14.60;99.90;;;;;;5039588;28;20478;-70
2023/08/31 07:26:09;;;;;;;0.10;0.10;;;14.70;99.90;;;;;;5050174;28;20367;-69
2023/08/31 07:28:35;;;;;;;0.27;0.27;;;14.70;99.90;;;;;;5047328;28;20381;-70
2023/08/31 07:31:06;;;;;;;6.23;0.20;;;14.80;99.90;;;;;;5043903;28;20075;-91
2023/08/31 07:33:32;;;;;;;0.52;0.52;;;15.10;99.90;;;;;;5039916;28;20025;-71
2023/08/31 07:35:59;;;;;;;0.10;0.10;;;15.30;99.90;;;;;;5041672;28;20021;-70
2023/08/31 07:38:26;;;;;;;0.00;0.00;;;15.10;99.90;;;;;;5037772;28;20045;-71
2023/08/31 07:40:52;;;;;;;0.10;0.10;;;14.90;99.90;;;;;;5043479;28;20036;-71
2023/08/31 07:43:18;;;;;;;0.00;0.00;;;14.70;99.90;;;;;;5044929;28;20024;-71
2023/08/31 07:45:43;;;;;;;0.40;0.37;;;14.60;99.90;;;;;;5047122;28;20074;-70
2023/08/31 07:48:09;;;;;;;0.20;0.17;;;14.50;99.90;;;;;;5050662;28;20468;-82
2023/08/31 07:50:34;;;;;;;0.10;0.10;;;14.50;99.90;;;;;;5052009;28;20106;-71
2023/08/31 07:53:00;;;;;;;0.67;0.63;;;14.50;99.90;;;;;;5035512;28;20044;-70
2023/08/31 07:55:26;;;;;;;0.33;0.33;;;14.50;99.90;;;;;;5043489;28;20035;-71
2023/08/31 07:57:51;;;;;;;0.00;0.00;;;14.50;99.90;;;;;;5036008;28;20061;-71
2023/08/31 08:00:18;;;;;;;2.33;0.37;;;14.50;99.90;;;;;;5036597;28;20035;-70
2023/08/31 08:02:45;;;;;;;0.25;0.22;;;14.50;99.90;;;;;;5036365;28;20107;-70
2023/08/31 08:05:11;;;;;;;0.80;0.47;;;14.60;99.90;;;;;;5028531;28;20368;-77
2023/08/31 08:07:37;;;;;;;0.00;0.00;;;14.70;99.90;;;;;;5036287;28;20022;-70
2023/08/31 08:10:03;;;;;;;0.20;0.10;;;14.90;99.90;;;;;;5033823;28;20026;-70
2023/08/31 08:12:40;;;;;;;0.87;0.20;;;15.10;99.90;;;;;;5036065;28;20430;-71
2023/08/31 08:15:08;;;;;;;0.25;0.25;;;15.30;99.90;;;;;;5028347;28;20421;-70
2023/08/31 08:17:34;;;;;;;2.35;0.47;;;15.50;99.90;;;;;;5036075;28;20432;-70
2023/08/31 08:19:59;;;;;;;0.10;0.10;;;15.80;99.90;;;;;;5036812;28;20064;-70
2023/08/31 08:22:25;;;;;;;0.40;0.40;;;16.00;99.90;;;;;;5031872;28;20025;-70
2023/08/31 08:24:51;;;;;;;0.10;0.10;;;16.20;99.90;;;;;;5035860;28;20083;-73
2023/08/31 08:27:18;;;;;;;1.60;1.47;;;16.30;99.90;;;;;;5035835;28;20290;-70
2023/08/31 08:29:45;;;;;;;1.00;0.45;;;16.40;99.90;;;;;;5036125;28;20036;-70
2023/08/31 08:32:11;;;;;;;0.17;0.17;;;16.50;99.90;;;;;;5036169;28;20086;-70
2023/08/31 08:34:36;;;;;;;3.28;1.75;;;16.70;99.90;;;;;;5032701;28;20112;-70
2023/08/31 08:37:03;;;;;;;4.17;1.03;;;16.90;99.90;;;;;;5052687;28;20021;-70
2023/08/31 08:39:29;;;;;;;0.10;0.10;;;17.00;99.90;;;;;;5056029;28;20048;-71
2023/08/31 08:41:58;;;;;;;0.03;0.03;;;16.90;99.90;;;;;;5049685;28;20033;-71
2023/08/31 08:44:25;;;;;;;2.13;1.42;;;16.70;99.90;;;;;;5048038;28;20115;-71
2023/08/31 08:46:57;;;;;;;0.80;0.63;;;16.70;99.90;;;;;;5033416;28;20033;-76
2023/08/31 08:49:23;;;;;;;0.08;0.08;;;16.70;99.90;;;;;;5054430;28;20021;-70
2023/08/31 08:51:50;;;;;;;0.00;0.00;;;16.60;99.90;;;;;;5056038;28;20407;-70
2023/08/31 08:54:18;;;;;;;0.10;0.10;;;16.60;99.90;;;;;;5055147;28;20108;-71
2023/08/31 08:56:44;;;;;;;0.10;0.10;;;16.70;99.90;;;;;;5045742;28;20039;-70
2023/08/31 08:59:13;;;;;;;0.20;0.20;;;16.80;99.90;;;;;;5044214;28;20020;-70
2023/08/31 09:01:39;;;;;;;0.80;0.50;;;17.00;99.90;;;;;;5055610;28;20025;-71
2023/08/31 09:04:06;;;;;;;0.00;0.00;;;17.20;99.90;;;;;;5055124;28;20461;-71
2023/08/31 09:06:32;;;;;;;2.38;2.00;;;17.50;99.90;;;;;;5054487;28;20104;-70
2023/08/31 09:08:58;;;;;;;;;;;17.70;99.90;;;;;;5054982;28;20316;-71
2023/08/31 09:11:25;;;;;;;0.20;0.20;;;17.90;99.90;;;;;;5044242;28;19908;-71
2023/08/31 09:13:51;;;;;;;0.05;0.05;;;18.10;99.90;;;;;;5047704;28;20495;-71
2023/08/31 09:16:25;;;;;;;0.10;0.10;;;18.30;99.90;;;;;;5029664;28;20025;-70
2023/08/31 09:18:50;;;;;;;0.45;0.40;;;18.50;99.90;;;;;;5035673;28;20041;-70
2023/08/31 09:21:16;;;;;;;0.33;0.33;;;18.60;99.90;;;;;;5048667;28;20455;-71
2023/08/31 09:23:44;;;;;;;0.10;0.10;;;18.70;99.90;;;;;;5036484;28;20021;-71
2023/08/31 09:26:11;;;;;;;0.80;0.60;;;18.90;99.90;;;;;;5050346;28;20057;-70
2023/08/31 09:28:40;;;;;;;1.40;1.10;;;19.10;99.90;;;;;;5054170;28;20013;-70
2023/08/31 09:31:08;;;;;;;0.13;0.13;;;19.20;99.90;;;;;;5048191;28;20696;-70
2023/08/31 09:33:36;;;;;;;0.00;0.00;;;19.10;99.90;;;;;;5036206;28;20038;-71
2023/08/31 09:36:03;;;;;;;0.00;0.00;;;18.80;99.90;;;;;;5040161;28;20044;-79
2023/08/31 09:38:29;;;;;;;3.13;1.83;;;18.50;99.90;;;;;;5039613;28;20108;-70
2023/08/31 09:41:08;;;;;;;0.47;0.47;;;18.30;99.90;;;;;;5038215;28;20121;-79
2023/08/31 09:43:34;;;;;;;0.10;0.10;;;18.10;99.90;;;;;;5041344;28;20029;-71
2023/08/31 09:46:02;;;;;;;0.00;0.00;;;17.90;99.90;;;;;;5052141;28;20503;-71
2023/08/31 09:48:29;;;;;;;0.25;0.25;;;17.80;99.90;;;;;;5031028;28;20116;-70
2023/08/31 09:50:55;;;;;;;;;;;17.60;99.90;;;;;;5040859;28;20080;-70
2023/08/31 09:53:22;;;;;;;0.00;0.00;;;17.50;99.90;;;;;;5043549;28;20256;-71
2023/08/31 09:55:48;;;;;;;0.63;0.47;;;17.40;99.90;;;;;;5038552;28;20127;-69
2023/08/31 09:58:18;;;;;;;0.00;0.00;;;17.30;99.90;;;;;;5049319;28;20024;-70
2023/08/31 10:00:45;;;;;;;0.08;0.08;;;17.20;99.90;;;;;;5041364;28;20025;-71
2023/08/31 10:03:15;;;;;;;2.83;0.90;;;17.10;99.90;;;;;;5035493;28;20056;-70
2023/08/31 10:05:43;;;;;;;0.13;0.13;;;16.90;99.90;;;;;;5046416;28;20071;-71
2023/08/31 10:08:09;;;;;;;1.08;0.73;;;16.70;99.90;;;;;;5047923;28;20028;-78
2023/08/31 10:10:36;;;;;;;0.43;0.43;;;16.80;99.90;;;;;;5050261;28;20029;-70
2023/08/31 10:13:02;;;;;;;;;;;17.20;99.90;;;;;;5033499;28;20026;-81
2023/08/31 10:15:33;;;;;;;0.15;0.15;;;17.40;99.90;;;;;;5043163;28;20003;-70
2023/08/31 10:18:01;;;;;;;1.00;0.77;;;17.70;99.90;;;;;;5043059;28;20038;-80
2023/08/31 10:20:28;;;;;;;0.00;0.00;;;18.20;99.90;;;;;;5046068;28;20355;-71
2023/08/31 10:22:57;;;;;;;0.73;0.73;;;18.60;99.90;;;;;;5043572;28;20030;-70
2023/08/31 10:25:23;;;;;;;0.10;0.10;;;19.00;99.90;;;;;;5043064;28;20484;-70
2023/08/31 10:27:52;;;;;;;0.00;0.00;;;19.00;99.90;;;;;;5047867;28;20068;-70
2023/08/31 10:30:27;;;;;;;0.00;0.00;;;18.70;99.90;;;;;;5044219;28;20041;-70
2023/08/31 10:33:22;;;;;;;2.45;0.28;;;18.40;99.90;;;;;;5030449;28;20064;-70
2023/08/31 10:35:54;;;;;;;0.20;0.20;;;18.20;99.90;;;;;;5067091;28;20036;-69
2023/08/31 10:38:30;;;;;;;0.55;0.28;;;18.00;99.90;;;;;;5038472;28;20372;-70
2023/08/31 10:41:08;;;;;;;0.52;0.47;;;17.80;99.90;;;;;;5062850;28;20060;-79
2023/08/31 10:43:57;;;;;;;0.25;0.25;;;17.60;99.90;;;;;;5047010;28;20443;-69
2023/08/31 10:46:28;;;;;;;0.10;0.10;;;17.40;99.90;;;;;;5052797;28;20131;-68
2023/08/31 10:49:09;;;;;;;0.00;0.00;;;17.30;99.90;;;;;;5035255;28;20024;-71
2023/08/31 10:51:36;;;;;;;1.20;0.93;;;17.10;99.90;;;;;;5061082;28;20508;-69
2023/08/31 10:54:13;;;;;;;0.20;0.20;;;17.00;99.90;;;;;;5069421;28;20368;-79
2023/08/31 10:56:51;;;;;;;;;;;16.90;99.90;;;;;;5058785;28;20051;-70
2023/08/31 10:59:17;;;;;;;0.10;0.10;;;16.80;99.90;;;;;;5064700;28;20537;-69
2023/08/31 11:01:53;;;;;;;0.03;0.03;;;16.80;99.90;;;;;;5064298;28;20048;-80
2023/08/31 11:04:19;;;;;;;0.10;0.10;;;16.70;99.90;;;;;;5042327;28;20108;-70
2023/08/31 11:06:45;;;;;;;0.90;0.43;;;16.70;99.90;;;;;;5070150;28;20040;-70
2023/08/31 11:09:21;;;;;;;0.00;0.00;;;16.90;99.90;;;;;;5069541;28;20104;-70
2023/08/31 11:11:48;;;;;;;0.00;0.00;;;17.20;99.90;;;;;;5062195;28;20052;-70
2023/08/31 11:14:14;;;;;;;0.30;0.20;;;17.20;99.90;;;;;;5047382;28;20033;-69
2023/08/31 11:16:40;;;;;;;1.17;0.40;;;17.30;99.90;;;;;;5049253;28;20068;-69
2023/08/31 11:19:05;;;;;;;0.00;0.00;;;17.10;99.90;;;;;;5047813;28;20341;-70
2023/08/31 11:21:31;;;;;;;0.10;0.10;;;17.10;99.90;;;;;;5037646;28;20036;-70
2023/08/31 11:23:58;;;;;;;0.03;0.03;;;17.10;99.90;;;;;;5047220;28;20424;-78
2023/08/31 11:26:29;;;;;;;;;;;17.00;99.90;;;;;;5036484;28;20033;-70
2023/08/31 11:28:56;;;;;;;0.30;0.28;;;17.20;99.90;;;;;;5046232;28;20552;-76
2023/08/31 11:31:26;;;;;;;1.27;0.47;;;17.50;99.90;;;;;;5051243;28;20017;-71
2023/08/31 11:33:52;;;;;;;0.00;0.00;;;17.80;99.90;;;;;;5037810;28;20160;-69
2023/08/31 11:36:18;;;;;;;;;;;18.00;99.90;;;;;;5050832;28;20025;-70
2023/08/31 11:38:44;;;;;;;0.00;0.00;;;18.20;99.90;;;;;;5039552;28;20023;-69
2023/08/31 11:41:10;;;;;;;0.75;0.45;;;18.50;99.90;;;;;;5039808;28;20040;-70
2023/08/31 11:43:37;;;;;;;0.10;0.10;;;18.70;99.90;;;;;;5037620;28;20033;-69
2023/08/31 11:46:04;;;;;;;0.10;0.10;;;18.90;99.90;;;;;;5035663;28;20551;-77
2023/08/31 11:48:30;;;;;;;;;;;19.10;99.90;;;;;;5045937;28;20053;-70
2023/08/31 11:50:56;;;;;;;0.03;0.03;;;19.20;99.90;;;;;;5038776;28;19909;-77
2023/08/31 11:53:22;;;;;;;0.25;0.25;;;19.40;99.90;;;;;;5040193;28;20039;-69
2023/08/31 11:55:51;;;;;;;1.07;0.40;;;19.50;99.90;;;;;;5040024;28;20025;-69
2023/08/31 11:58:17;;;;;;;0.00;0.00;;;19.60;99.90;;;;;;5039498;28;20094;-69
2023/08/31 12:00:43;;;;;;;0.00;0.00;;;19.70;99.90;;;;;;5047035;28;20320;-69
2023/08/31 12:03:09;;;;;;;1.60;0.38;;;19.90;99.90;;;;;;5040400;28;20087;-70
2023/08/31 12:05:48;;;;;;;1.15;0.68;;;19.90;99.90;;;;;;5044227;28;20033;-70
2023/08/31 12:08:18;;;;;;;0.05;0.05;;;20.00;99.90;;;;;;5045058;28;20036;-70
2023/08/31 12:10:44;;;;;;;0.00;0.00;;;20.00;99.90;;;;;;5040368;28;20120;-69
2023/08/31 12:13:10;;;;;;;0.20;0.10;;;20.10;99.90;;;;;;5042680;28;20104;-70
2023/08/31 12:15:36;;;;;;;0.00;0.00;;;20.20;99.90;;;;;;5040680;28;20030;-69
2023/08/31 12:18:10;;;;;;;1.30;0.67;;;20.30;99.90;;;;;;5039419;28;20048;-82
2023/08/31 12:20:46;;;;;;;0.32;0.20;;;20.30;99.90;;;;;;5044855;28;20352;-71
2023/08/31 12:23:14;;;;;;;0.08;0.08;;;20.40;99.90;;;;;;5047543;28;20024;-69
2023/08/31 12:25:52;;;;;;;0.00;0.00;;;20.30;99.90;;;;;;5050219;28;20510;-69
2023/08/31 12:28:19;;;;;;;0.00;0.00;;;20.40;99.90;;;;;;5043569;28;20025;-70
2023/08/31 12:30:49;;;;;;;0.45;0.25;;;20.40;99.90;;;;;;5046981;28;20025;-70
2023/08/31 12:33:15;;;;;;;0.00;0.00;;;20.40;99.90;;;;;;5045016;28;20541;-70
2023/08/31 12:35:41;;;;;;;0.43;0.40;;;20.50;99.90;;;;;;5050191;28;20057;-70
2023/08/31 12:38:07;;;;;;;0.00;0.00;;;20.50;99.90;;;;;;5044452;28;20033;-70
2023/08/31 12:40:32;;;;;;;0.53;0.20;;;20.60;99.90;;;;;;5041349;28;20084;-69
2023/08/31 12:42:58;;;;;;;0.27;0.27;;;20.70;99.90;;;;;;5038076;28;20527;-78
2023/08/31 12:45:24;;;;;;;0.73;0.73;;;20.80;99.90;;;;;;5038403;28;20094;-69
2023/08/31 12:47:49;;;;;;;0.47;0.47;;;20.80;99.90;;;;;;5040216;28;20025;-68
2023/08/31 12:50:15;;;;;;;0.17;0.17;;;20.70;99.90;;;;;;5037381;28;20111;-70